createdAt,value
2018-01-12T00:00:17.485Z,80.40
2018-01-12T00:02:47.629Z,80.30
2018-01-12T00:05:22.577Z,79.80
2018-01-12T00:07:56.892Z,80.10
2018-01-12T00:10:24.786Z,80.30
2018-01-12T00:12:53.464Z,80.70
2018-01-12T00:15:21.092Z,80.80
2018-01-12T00:17:58.337Z,81.10
2018-01-12T00:20:35.876Z,81.40
2018-01-12T00:23:04.644Z,81.70
2018-01-12T00:25:34.416Z,81.70
2018-01-12T00:28:04.491Z,81.80
2018-01-12T00:30:33.106Z,82.10
2018-01-12T00:33:03.092Z,82.10
2018-01-12T00:35:32.760Z,82.10
2018-01-12T00:38:01.293Z,82.60
2018-01-12T00:40:36.692Z,82.20
2018-01-12T00:43:06.685Z,82.00
2018-01-12T00:45:34.349Z,81.30
2018-01-12T00:48:01.977Z,80.90
2018-01-12T00:50:30.799Z,80.70
2018-01-12T00:52:59.578Z,80.20
2018-01-12T00:55:28.151Z,80.00
2018-01-12T00:57:58.776Z,79.80
2018-01-12T01:00:26.478Z,79.80
2018-01-12T01:05:44.659Z,80.70
2018-01-12T01:08:13.080Z,80.60
2018-01-12T01:10:41.484Z,80.70
2018-01-12T01:13:12.254Z,80.70
2018-01-12T01:15:40.651Z,80.50
2018-01-12T01:18:08.968Z,81.10
2018-01-12T01:20:36.561Z,80.80
2018-01-12T01:25:38.141Z,80.30
2018-01-12T01:28:06.910Z,80.20
2018-01-12T01:30:34.523Z,79.90
2018-01-12T01:33:02.918Z,79.70
2018-01-12T01:35:30.520Z,79.70
2018-01-12T01:37:58.107Z,79.20
2018-01-12T01:40:25.645Z,80.00
2018-01-12T01:42:55.551Z,80.50
2018-01-12T01:45:24.302Z,80.90
2018-01-12T01:47:51.892Z,80.40
2018-01-12T01:50:19.486Z,80.70
2018-01-12T01:52:49.201Z,80.80
2018-01-12T01:55:18.479Z,80.20
2018-01-12T01:57:46.053Z,80.20
2018-01-12T02:00:14.906Z,80.00
2018-01-12T02:02:43.118Z,79.40
2018-01-12T02:05:15.068Z,78.70
2018-01-12T02:07:42.755Z,78.60
2018-01-12T02:10:11.434Z,79.20
2018-01-12T02:12:39.021Z,79.10
2018-01-12T02:15:06.596Z,79.90
2018-01-12T02:17:34.222Z,80.10
2018-01-12T02:20:02.570Z,80.90
2018-01-12T02:22:30.161Z,80.90
2018-01-12T02:24:59.057Z,80.90
2018-01-12T02:27:28.284Z,80.10
2018-01-12T02:29:55.847Z,80.10
2018-01-12T02:32:24.290Z,80.70
2018-01-12T02:34:53.287Z,80.90
2018-01-12T02:37:23.240Z,80.70
2018-01-12T02:39:50.869Z,80.60
2018-01-12T02:42:19.280Z,81.30
2018-01-12T02:44:50.569Z,81.30
2018-01-12T02:47:18.226Z,81.50
2018-01-12T02:49:45.827Z,81.00
2018-01-12T02:52:14.143Z,80.50
2018-01-12T02:54:43.092Z,80.40
2018-01-12T02:57:10.754Z,80.60
2018-01-12T02:59:40.278Z,80.80
2018-01-12T03:02:08.654Z,80.60
2018-01-12T03:04:37.401Z,80.80
2018-01-12T03:07:05.009Z,80.60
2018-01-12T03:09:36.340Z,81.10
2018-01-12T03:12:04.714Z,81.30
2018-01-12T03:14:33.651Z,81.60
2018-01-12T03:17:01.266Z,81.50
2018-01-12T03:19:39.630Z,81.80
2018-01-12T03:22:07.218Z,81.70
2018-01-12T03:24:37.270Z,82.60
2018-01-12T03:27:05.012Z,83.00
2018-01-12T03:32:08.740Z,83.50
2018-01-12T03:34:38.041Z,84.10
2018-01-12T03:37:06.519Z,84.10
2018-01-12T03:39:35.054Z,84.20
2018-01-12T03:42:02.704Z,84.50
2018-01-12T03:44:30.921Z,83.80
2018-01-12T03:46:59.233Z,83.70
2018-01-12T03:49:26.859Z,83.80
2018-01-12T03:51:54.505Z,84.00
2018-01-12T03:54:22.186Z,83.40
2018-01-12T03:56:49.890Z,83.30
2018-01-12T03:59:18.386Z,82.10
2018-01-12T04:01:46.817Z,82.20
2018-01-12T04:04:20.312Z,82.80
2018-01-12T04:06:48.035Z,82.90
2018-01-12T04:09:15.630Z,82.80
2018-01-12T04:11:44.032Z,83.40
2018-01-12T04:14:12.514Z,82.80
2018-01-12T04:16:41.059Z,82.50
2018-01-12T04:19:08.695Z,82.10
2018-01-12T04:21:36.329Z,82.20
2018-01-12T04:24:05.398Z,81.20
2018-01-12T04:26:32.960Z,81.10
2018-01-12T04:29:01.806Z,81.40
2018-01-12T04:31:29.391Z,80.90
2018-01-12T04:33:57.019Z,80.40
2018-01-12T04:36:24.619Z,79.80
2018-01-12T04:39:15.141Z,79.00
2018-01-12T04:41:42.817Z,79.40
2018-01-12T04:44:12.069Z,79.90
2018-01-12T04:46:51.823Z,79.70
2018-01-12T04:49:20.645Z,80.00
2018-01-12T04:51:52.617Z,79.90
2018-01-12T04:54:21.837Z,80.10
2018-01-12T04:56:50.176Z,79.90
2018-01-12T04:59:19.047Z,79.90
2018-01-12T05:01:50.958Z,80.40
2018-01-12T05:04:31.647Z,80.40
2018-01-12T05:07:00.694Z,79.90
2018-01-12T05:09:29.126Z,79.90
2018-01-12T05:11:58.145Z,79.90
2018-01-12T05:14:29.483Z,79.90
2018-01-12T05:16:58.643Z,79.80
2018-01-12T05:19:28.297Z,80.50
2018-01-12T05:21:57.378Z,79.70
2018-01-12T05:24:31.322Z,79.80
2018-01-12T05:27:00.713Z,79.90
2018-01-12T05:32:12.306Z,79.80
2018-01-12T05:34:46.128Z,79.80
2018-01-12T05:37:16.332Z,80.20
2018-01-12T05:39:52.394Z,80.40
2018-01-12T05:42:21.845Z,80.80
2018-01-12T05:44:57.522Z,81.10
2018-01-12T05:47:27.189Z,81.10
2018-01-12T05:49:55.525Z,81.40
2018-01-12T05:52:41.008Z,81.30
2018-01-12T05:55:09.242Z,81.30
2018-01-12T05:57:37.446Z,81.30
2018-01-12T06:00:07.679Z,81.30
2018-01-12T06:05:49.882Z,79.90
2018-01-12T06:08:19.248Z,80.00
2018-01-12T06:10:47.597Z,79.80
2018-01-12T06:13:15.700Z,79.70
2018-01-12T06:15:44.022Z,79.60
2018-01-12T06:18:12.385Z,79.50
2018-01-12T06:20:41.823Z,80.20
2018-01-12T06:23:14.620Z,80.00
2018-01-12T06:25:42.212Z,79.70
2018-01-12T06:28:09.756Z,79.90
2018-01-12T06:30:40.746Z,80.00
2018-01-12T06:33:09.412Z,80.20
2018-01-12T06:35:48.780Z,80.10
2018-01-12T06:38:16.291Z,80.20
2018-01-12T06:40:44.634Z,80.80
2018-01-12T06:43:12.220Z,80.80
2018-01-12T06:46:03.103Z,80.80
2018-01-12T06:48:36.343Z,81.00
2018-01-12T06:51:09.802Z,80.90
2018-01-12T07:02:53.149Z,81.70
2018-01-12T07:05:30.287Z,80.60
2018-01-12T07:08:03.729Z,79.20
2018-01-12T07:10:36.179Z,79.30
2018-01-12T07:13:07.621Z,77.00
2018-01-12T07:15:36.638Z,77.50
2018-01-12T07:18:04.256Z,77.90
2018-01-12T07:20:43.455Z,78.10
2018-01-12T07:23:23.011Z,78.60
2018-01-12T07:25:50.605Z,79.20
2018-01-12T07:28:18.937Z,79.80
2018-01-12T07:30:46.498Z,79.70
2018-01-12T07:33:14.016Z,80.10
2018-01-12T07:38:15.410Z,79.10
2018-01-12T07:40:42.960Z,79.00
2018-01-12T07:43:10.528Z,79.40
2018-01-12T07:45:38.109Z,79.00
2018-01-12T07:48:17.111Z,79.60
2018-01-12T07:50:45.608Z,80.20
2018-01-12T07:53:18.874Z,80.00
2018-01-12T07:55:47.297Z,80.20
2018-01-12T07:58:19.940Z,79.70
2018-01-12T08:00:53.126Z,80.80
2018-01-12T08:03:25.259Z,80.40
2018-01-12T08:05:53.634Z,80.10
2018-01-12T08:08:21.966Z,80.30
2018-01-12T08:10:49.644Z,80.30
2018-01-12T08:13:17.399Z,79.80
2018-01-12T08:15:45.280Z,80.10
2018-01-12T08:18:12.930Z,80.00
2018-01-12T08:20:40.537Z,79.40
2018-01-12T08:23:08.957Z,79.90
2018-01-12T08:25:36.574Z,79.90
2018-01-12T08:28:04.908Z,79.30
2018-01-12T08:30:34.810Z,79.30
2018-01-12T08:33:05.179Z,79.70
2018-01-12T08:35:37.118Z,78.50
2018-01-12T08:38:08.724Z,78.50
2018-01-12T08:40:41.741Z,77.40
2018-01-12T08:43:21.635Z,77.40
2018-01-12T08:45:58.905Z,77.80
2018-01-12T08:48:33.104Z,77.70
2018-01-12T08:51:00.650Z,77.40
2018-01-12T08:53:28.173Z,78.10
2018-01-12T08:55:55.645Z,78.30
2018-01-12T08:58:23.142Z,78.50
2018-01-12T09:00:50.616Z,78.50
2018-01-12T09:03:18.110Z,77.30
2018-01-12T09:05:45.614Z,77.60
2018-01-12T09:08:13.873Z,78.10
2018-01-12T09:10:41.353Z,78.10
2018-01-12T09:13:20.577Z,78.40
2018-01-12T09:15:48.079Z,78.90
2018-01-12T09:18:27.397Z,78.10
2018-01-12T09:20:54.903Z,78.40
2018-01-12T09:23:29.247Z,78.90
2018-01-12T09:25:56.734Z,78.40
2018-01-12T09:28:24.226Z,78.20
2018-01-12T09:30:51.710Z,77.80
2018-01-12T09:33:19.214Z,77.70
2018-01-12T09:35:46.717Z,77.30
2018-01-12T09:38:22.085Z,78.40
2018-01-12T09:40:49.555Z,77.40
2018-01-12T09:43:17.055Z,77.20
2018-01-12T09:45:44.565Z,77.30
2018-01-12T09:48:25.890Z,77.00
2018-01-12T09:50:53.372Z,76.50
2018-01-12T09:53:20.906Z,75.50
2018-01-12T09:55:49.232Z,75.60
2018-01-12T09:58:16.724Z,75.50
2018-01-12T10:01:05.849Z,74.50
2018-01-12T10:03:34.068Z,72.10
2018-01-12T10:06:01.570Z,72.10
2018-01-12T10:08:29.062Z,72.30
2018-01-12T10:10:56.570Z,69.30
2018-01-12T10:13:24.828Z,66.80
2018-01-12T10:15:52.313Z,66.80
2018-01-12T10:18:19.868Z,66.20
2018-01-12T10:20:48.111Z,64.30
2018-01-12T10:23:15.656Z,64.30
2018-01-12T10:25:43.148Z,65.00
2018-01-12T10:28:11.393Z,65.60
2018-01-12T10:33:56.377Z,66.00
2018-01-12T10:39:28.418Z,66.50
2018-01-12T10:42:05.537Z,66.60
2018-01-12T10:44:33.116Z,66.90
2018-01-12T10:47:12.453Z,65.90
2018-01-12T10:49:39.952Z,65.50
2018-01-12T10:52:08.278Z,64.70
2018-01-12T10:54:35.793Z,65.10
2018-01-12T10:57:03.274Z,65.40
2018-01-12T10:59:30.774Z,65.90
2018-01-12T11:01:58.276Z,66.10
2018-01-12T11:04:25.771Z,67.10
2018-01-12T11:06:53.257Z,67.30
2018-01-12T11:09:21.517Z,67.20
2018-01-12T11:11:49.002Z,67.10
2018-01-12T11:14:17.293Z,66.30
2018-01-12T11:16:44.796Z,66.30
2018-01-12T11:19:12.270Z,66.80
2018-01-12T11:21:39.760Z,66.50
2018-01-12T11:24:07.345Z,66.50
2018-01-12T11:26:34.846Z,66.90
2018-01-12T11:29:02.549Z,67.80
2018-01-12T11:31:30.063Z,68.00
2018-01-12T11:33:57.555Z,67.90
2018-01-12T11:36:25.816Z,67.60
2018-01-12T11:38:53.304Z,67.60
2018-01-12T11:41:20.793Z,68.60
2018-01-12T11:43:48.343Z,68.30
2018-01-12T11:46:16.561Z,66.60
2018-01-12T11:48:44.076Z,66.50
2018-01-12T11:51:11.594Z,65.20
2018-01-12T11:53:39.059Z,65.50
2018-01-12T11:56:06.622Z,66.20
2018-01-12T11:58:34.849Z,65.50
2018-01-12T12:01:02.423Z,64.60
2018-01-12T12:03:30.888Z,64.70
2018-01-12T12:05:58.447Z,64.40
2018-01-12T12:08:26.005Z,63.60
2018-01-12T12:10:53.574Z,64.00
2018-01-12T13:24:57.839Z,68.80
2018-01-12T13:27:25.440Z,68.50
2018-01-12T13:30:36.935Z,69.40
2018-01-12T13:33:33.846Z,69.40
2018-01-12T13:36:13.800Z,68.80
2018-01-12T13:38:51.002Z,69.30
2018-01-12T13:41:33.296Z,69.00
2018-01-12T13:47:25.072Z,69.50
2018-01-12T13:50:17.803Z,69.30
2018-01-12T13:52:51.509Z,68.80
2018-01-12T13:55:25.533Z,69.00
2018-01-12T13:57:53.097Z,68.90
2018-01-12T14:00:21.537Z,70.40
2018-01-12T14:02:49.109Z,70.30
2018-01-12T14:05:20.990Z,70.00
2018-01-12T14:07:49.015Z,70.50
2018-01-12T14:10:16.737Z,70.00
2018-01-12T14:12:56.103Z,70.40
2018-01-12T14:18:15.047Z,70.60
2018-01-12T14:20:47.083Z,70.20
2018-01-12T14:23:15.370Z,70.10
2018-01-12T14:25:42.916Z,69.60
2018-01-12T14:28:10.646Z,70.50
2018-01-12T14:30:38.223Z,69.50
2018-01-12T14:33:05.748Z,69.80
2018-01-12T14:35:33.317Z,70.80
2018-01-12T14:38:01.585Z,70.30
2018-01-12T14:40:29.151Z,70.80
2018-01-12T14:42:56.721Z,70.60
2018-01-12T14:45:27.035Z,70.50
2018-01-12T14:47:54.613Z,71.10
2018-01-12T14:50:22.201Z,70.80
2018-01-12T14:52:49.765Z,70.60
2018-01-12T14:55:18.114Z,70.90
2018-01-12T14:57:45.721Z,70.80
2018-01-12T15:02:50.088Z,70.70
2018-01-12T15:05:18.778Z,71.80
2018-01-12T15:08:00.601Z,71.30
2018-01-12T15:10:28.281Z,71.20
2018-01-12T15:15:43.660Z,71.50
2018-01-12T15:18:16.764Z,71.70
2018-01-12T15:20:51.987Z,71.70
2018-01-12T15:23:23.324Z,71.40
2018-01-12T15:25:55.497Z,71.50
2018-01-12T15:31:25.028Z,71.50
2018-01-12T15:33:53.345Z,71.40
2018-01-12T15:36:37.379Z,72.00
2018-01-12T15:42:23.514Z,72.60
2018-01-12T16:21:07.211Z,71.90
2018-01-12T16:23:42.572Z,73.70
2018-01-12T16:26:12.218Z,73.90
2018-01-12T16:28:39.702Z,73.80
2018-01-12T16:31:07.194Z,74.40
2018-01-12T16:33:35.428Z,74.50
2018-01-12T16:36:18.750Z,74.40
2018-01-12T16:38:46.944Z,74.70
2018-01-12T16:41:36.523Z,74.90
2018-01-12T16:44:05.022Z,75.30
2018-01-12T16:46:32.650Z,75.30
2018-01-12T16:49:00.957Z,75.10
2018-01-12T16:51:29.293Z,75.00
2018-01-12T16:53:56.863Z,75.00
2018-01-12T16:56:24.381Z,74.90
2018-01-12T16:58:51.929Z,74.80
2018-01-12T17:01:19.444Z,74.80
2018-01-12T17:03:47.130Z,74.90
2018-01-12T17:06:15.471Z,75.30
2018-01-12T17:08:43.068Z,75.20
2018-01-12T17:11:11.413Z,75.40
2018-01-12T17:13:39.032Z,75.30
2018-01-12T17:16:07.328Z,75.60
2018-01-12T17:18:34.809Z,75.60
2018-01-12T17:21:02.293Z,75.60
2018-01-12T17:23:29.854Z,75.70
2018-01-12T17:25:57.358Z,76.20
2018-01-12T17:28:24.856Z,76.50
2018-01-12T17:30:52.353Z,77.20
2018-01-12T17:33:20.602Z,77.50
2018-01-12T17:35:48.083Z,77.50
2018-01-12T17:38:16.348Z,77.10
2018-01-12T17:40:43.925Z,77.10
2018-01-12T17:43:12.181Z,77.50
2018-01-12T17:45:39.648Z,77.40
2018-01-12T17:48:07.952Z,77.80
2018-01-12T17:50:35.482Z,77.80
2018-01-12T17:53:03.753Z,78.10
2018-01-12T17:55:31.268Z,78.10
2018-01-12T17:57:58.975Z,78.30
2018-01-12T18:00:26.465Z,78.00
2018-01-12T18:02:53.973Z,77.90
2018-01-12T18:05:21.574Z,78.20
2018-01-12T18:07:49.065Z,78.60
2018-01-12T18:10:16.586Z,78.90
2018-01-12T18:12:44.124Z,78.30
2018-01-12T18:15:11.609Z,78.40
2018-01-12T18:17:39.922Z,78.70
2018-01-12T18:20:07.430Z,78.70
2018-01-12T18:22:35.682Z,79.40
2018-01-12T18:25:05.425Z,79.30
2018-01-12T18:27:33.072Z,79.50
2018-01-12T18:30:01.328Z,80.00
2018-01-12T18:32:28.800Z,79.10
2018-01-12T18:34:56.338Z,79.20
2018-01-12T18:37:23.842Z,79.80
2018-01-12T18:39:51.463Z,78.90
2018-01-12T18:42:19.013Z,79.20
2018-01-12T18:44:46.513Z,79.50
2018-01-12T18:47:14.068Z,79.40
2018-01-12T18:49:42.382Z,79.50
2018-01-12T18:52:09.861Z,79.40
2018-01-12T18:54:37.361Z,79.30
2018-01-12T18:57:05.620Z,79.40
2018-01-12T18:59:33.106Z,79.30
2018-01-12T19:02:00.621Z,79.20
2018-01-12T19:04:28.130Z,79.50
2018-01-12T19:06:55.608Z,79.40
2018-01-12T19:09:23.554Z,79.60
2018-01-12T19:11:51.086Z,79.60
2018-01-12T19:14:18.850Z,79.60
2018-01-12T19:16:47.241Z,78.80
2018-01-12T19:19:14.907Z,78.70
2018-01-12T19:21:42.498Z,79.00
2018-01-12T19:24:10.227Z,78.60
2018-01-12T19:26:37.858Z,78.60
2018-01-12T19:29:05.389Z,78.90
2018-01-12T19:31:32.929Z,79.00
2018-01-12T19:34:00.535Z,79.20
2018-01-12T19:36:29.022Z,79.60
2018-01-12T19:38:56.717Z,79.40
2018-01-12T19:41:26.502Z,79.30
2018-01-12T19:43:54.105Z,78.70
2018-01-12T19:46:22.466Z,78.70
2018-01-12T19:48:50.043Z,78.70
2018-01-12T19:51:17.660Z,78.80
2018-01-12T19:53:45.269Z,78.60
2018-01-12T19:56:12.838Z,78.00
2018-01-12T19:58:40.556Z,78.20
2018-01-12T20:01:08.352Z,77.40
2018-01-12T20:03:36.001Z,77.70
2018-01-12T20:06:03.601Z,77.90
2018-01-12T20:08:31.181Z,78.10
2018-01-12T20:11:00.595Z,78.10
2018-01-12T20:13:43.693Z,78.30
2018-01-12T20:16:18.300Z,78.50
2018-01-12T20:18:46.238Z,78.80
2018-01-12T20:21:13.810Z,78.10
2018-01-12T20:23:41.346Z,77.90
2018-01-12T20:26:09.696Z,77.40
2018-01-12T20:28:37.217Z,77.30
2018-01-12T20:31:04.780Z,77.60
2018-01-12T20:33:32.331Z,77.60
2018-01-12T20:35:59.863Z,77.60
2018-01-12T20:38:28.235Z,77.70
2018-01-12T20:40:56.570Z,76.90
2018-01-12T20:43:24.086Z,76.80
2018-01-12T20:45:51.713Z,76.60
2018-01-12T20:48:19.262Z,76.20
2018-01-12T20:50:46.794Z,76.50
2018-01-12T20:53:14.389Z,76.60
2018-01-12T20:55:41.933Z,77.20
2018-01-12T20:58:09.492Z,77.40
2018-01-12T21:00:37.057Z,77.20
2018-01-12T21:03:04.657Z,76.90
2018-01-12T21:05:32.384Z,76.90
2018-01-12T21:08:00.136Z,77.70
2018-01-12T21:10:28.238Z,77.30
2018-01-12T21:12:56.550Z,77.10
2018-01-12T21:15:24.111Z,77.00
2018-01-12T21:17:51.645Z,77.30
2018-01-12T21:20:19.994Z,77.50
2018-01-12T21:22:47.536Z,77.40
2018-01-12T21:25:15.151Z,77.20
2018-01-12T21:27:42.755Z,76.70
2018-01-12T21:30:10.309Z,77.10
2018-01-12T21:32:37.890Z,77.40
2018-01-12T21:35:05.480Z,77.40
2018-01-12T21:37:33.776Z,76.60
2018-01-12T21:40:01.324Z,76.50
2018-01-12T21:42:29.618Z,76.60
2018-01-12T21:44:57.181Z,76.50
2018-01-12T21:47:24.788Z,77.30
2018-01-12T21:49:53.066Z,77.60
2018-01-12T21:52:20.652Z,77.60
2018-01-12T21:54:48.957Z,76.70
2018-01-12T21:57:16.525Z,76.70
2018-01-12T21:59:44.062Z,77.50
2018-01-12T22:02:12.425Z,76.70
2018-01-12T22:04:40.739Z,76.40
2018-01-12T22:07:08.252Z,76.40
2018-01-12T22:09:36.542Z,75.30
2018-01-12T22:12:04.839Z,75.90
2018-01-12T22:14:32.421Z,75.90
2018-01-12T22:16:59.960Z,75.70
2018-01-12T22:19:27.514Z,76.40
2018-01-12T22:21:55.050Z,76.70
2018-01-12T22:24:23.365Z,76.50
2018-01-12T22:26:50.886Z,76.50
2018-01-12T22:29:19.247Z,76.80
2018-01-12T22:31:46.808Z,76.80
2018-01-12T22:34:14.391Z,77.20
2018-01-12T22:36:42.728Z,77.00
2018-01-12T22:39:10.271Z,76.90
2018-01-12T22:41:37.867Z,76.90
2018-01-12T22:44:05.396Z,76.50
2018-01-12T22:46:33.049Z,76.10
2018-01-12T22:49:00.600Z,76.30
2018-01-12T22:51:28.130Z,76.60
2018-01-12T22:53:56.428Z,77.40
2018-01-12T22:56:23.957Z,77.30
2018-01-12T22:58:52.264Z,76.70
2018-01-12T23:01:19.775Z,76.60
2018-01-12T23:03:47.365Z,77.10
2018-01-12T23:06:15.712Z,76.90
2018-01-12T23:08:43.257Z,76.80
2018-01-12T23:11:10.867Z,77.20
2018-01-12T23:13:38.417Z,77.70
2018-01-12T23:16:07.181Z,77.70
2018-01-12T23:18:34.849Z,77.70
2018-01-12T23:21:02.431Z,78.30
2018-01-12T23:23:32.360Z,77.90
2018-01-12T23:25:59.916Z,77.80
2018-01-12T23:28:27.477Z,78.20
2018-01-12T23:30:55.091Z,78.10
2018-01-12T23:33:23.370Z,77.10
2018-01-12T23:35:50.937Z,77.00
2018-01-12T23:38:18.469Z,75.80
2018-01-12T23:40:45.966Z,76.60
2018-01-12T23:43:14.311Z,76.10
2018-01-12T23:45:41.866Z,76.10
2018-01-12T23:48:09.447Z,76.10
2018-01-12T23:50:36.977Z,76.40
2018-01-12T23:53:04.487Z,76.50
2018-01-12T23:55:32.793Z,76.90
2018-01-12T23:58:00.320Z,76.80
